Time;durP1;ratioP1;P1;durP2;ratioP2;P2;SDS_P1;SDS_P2;PMS_P1;PMS_P2;Temp;Humidity;BMP_temperature;BMP_pressure;BME280_temperature;BME280_humidity;BME280_pressure;Samples;Min_cycle;Max_cycle;Signal;HPM_P1;HPM_P2
2022/09/19 00:02:18;;;;;;;;;;;;;;;;;;;;;
2022/09/19 00:07:19;;;;;;;14.48;2.88;;;;;;;9.03;88.45;101691.78;5975836;22;20053;-83
2022/09/19 00:09:45;;;;;;;10.80;2.75;;;;;;;8.74;89.14;101653.94;5004001;28;20385;-83
2022/09/19 00:12:21;;;;;;;15.35;4.03;;;;;;;8.88;88.30;101682.38;4988741;28;20112;-83
2022/09/19 00:14:57;;;;;;;12.63;2.65;;;;;;;8.71;87.79;101643.75;4979884;28;20420;-83
2022/09/19 00:17:25;;;;;;;10.40;2.30;;;;;;;8.71;88.30;101646.34;5007913;28;20473;-82
2022/09/19 00:19:53;;;;;;;10.15;2.20;;;;;;;8.94;88.34;101682.00;5008012;28;20032;-83
2022/09/19 00:22:27;;;;;;;9.50;1.77;;;;;;;8.78;88.35;101645.91;5004775;28;20041;-84
2022/09/19 00:24:57;;;;;;;11.20;2.13;;;;;;;8.93;88.90;101685.50;5007461;28;20021;-83
2022/09/19 00:27:38;;;;;;;10.23;2.10;;;;;;;8.78;89.34;101645.09;4990751;28;20120;-83
2022/09/19 00:30:05;;;;;;;9.10;2.30;;;;;;;9.01;88.32;101693.66;5009371;28;20041;-84
2022/09/19 00:32:45;;;;;;;;;;;;;;;;;;;;;
2022/09/19 00:35:39;;;;;;;11.07;2.15;;;;;;;8.73;88.52;101652.28;5007563;28;20473;-83
2022/09/19 00:38:07;;;;;;;9.75;2.17;;;;;;;8.96;88.80;101693.09;5008330;28;20108;-83
2022/09/19 00:40:36;;;;;;;10.60;2.40;;;;;;;8.73;88.45;101663.47;4988681;28;20307;-83
2022/09/19 00:43:10;;;;;;;10.10;2.00;;;;;;;8.76;88.88;101657.25;5006912;28;20042;-83
2022/09/19 00:45:40;;;;;;;12.88;3.05;;;;;;;8.90;88.53;101682.31;4985924;28;21197;-83
2022/09/19 00:48:16;;;;;;;13.82;2.55;;;;;;;8.74;88.36;101659.13;4989447;28;20045;-83
2022/09/19 00:51:01;;;;;;;10.15;2.28;;;;;;;8.71;88.78;101659.28;5006888;28;20025;-84
2022/09/19 00:53:42;;;;;;;;;;;;;;;;;;;;;
2022/09/19 00:56:19;;;;;;;9.35;2.28;;;;;;;8.83;88.59;101675.81;5003319;28;20040;-83
2022/09/19 00:58:50;;;;;;;9.60;1.92;;;;;;;8.98;89.33;101701.59;4996770;28;20518;-83
2022/09/19 01:01:21;;;;;;;12.13;2.58;;;;;;;9.08;89.25;101721.75;5002996;28;20026;-83
2022/09/19 01:03:54;;;;;;;15.13;2.63;;;;;;;8.95;88.83;101694.03;4988749;28;20383;-84
2022/09/19 01:06:39;;;;;;;14.88;2.90;;;;;;;9.12;88.62;101715.44;4977069;28;20029;-83
2022/09/19 01:09:38;;;;;;;10.52;2.17;;;;;;;9.14;88.48;101713.59;4988948;28;20049;-83
2022/09/19 01:12:26;;;;;;;15.30;2.85;;;;;;;9.17;88.79;101721.16;4985976;28;20713;-83
2022/09/19 01:15:12;;;;;;;10.68;2.80;;;;;;;9.16;88.25;101716.91;4989592;28;20049;-84
2022/09/19 01:17:45;;;;;;;10.55;2.80;;;;;;;9.14;88.05;101723.97;4992211;28;20038;-83
2022/09/19 01:20:17;;;;;;;14.88;4.20;;;;;;;8.97;89.10;101728.41;4983203;28;20033;-83
2022/09/19 01:23:29;;;;;;;14.77;2.47;;;;;;;9.13;88.98;101732.66;4989078;28;20026;-83
2022/09/19 01:26:03;;;;;;;15.05;3.05;;;;;;;8.82;89.61;101693.09;4982200;28;20037;-83
2022/09/19 01:28:46;;;;;;;11.00;2.22;;;;;;;9.10;89.08;101725.06;4993857;28;20026;-83
2022/09/19 01:31:29;;;;;;;13.25;3.17;;;;;;;8.98;89.26;101724.06;4989562;28;20041;-83
2022/09/19 01:34:24;;;;;;;8.88;1.95;;;;;;;9.05;88.89;101731.34;5007271;28;20561;-83
2022/09/19 01:37:07;;;;;;;11.35;2.47;;;;;;;9.01;89.09;101724.72;4996550;28;20029;-83
2022/09/19 01:39:39;;;;;;;12.60;2.10;;;;;;;8.76;89.21;101689.13;4990763;28;20481;-83
2022/09/19 01:42:12;;;;;;;14.05;2.38;;;;;;;8.82;89.19;101703.44;5007433;28;20128;-83
2022/09/19 01:44:53;;;;;;;15.00;3.25;;;;;;;8.66;88.59;101694.94;4994947;28;20054;-83
2022/09/19 01:47:56;;;;;;;9.52;1.65;;;;;;;8.75;89.03;101704.75;5006122;28;20029;-83
2022/09/19 01:50:38;;;;;;;8.45;1.70;;;;;;;8.88;88.78;101721.19;4989342;28;20053;-83
2022/09/19 01:53:31;;;;;;;11.55;2.25;;;;;;;8.98;88.55;101745.59;4976879;28;20038;-83
2022/09/19 01:56:15;;;;;;;6.80;1.80;;;;;;;8.95;89.17;101735.44;4986671;28;20121;-84
2022/09/19 01:59:22;;;;;;;12.52;3.10;;;;;;;8.89;89.46;101746.16;5004216;28;20106;-83
2022/09/19 02:02:24;;;;;;;8.95;1.88;;;;;;;8.72;89.17;101717.88;4954224;28;20773;-83
2022/09/19 02:05:04;;;;;;;15.25;2.15;;;;;;;8.58;88.50;101694.56;4982345;28;20033;-83
2022/09/19 02:07:48;;;;;;;8.00;1.63;;;;;;;8.84;88.67;101743.00;4998668;28;20118;-84
2022/09/19 02:10:31;;;;;;;8.45;2.00;;;;;;;8.68;89.05;101719.78;4988994;28;20026;-84
2022/09/19 02:13:04;;;;;;;14.63;2.58;;;;;;;8.74;88.81;101741.88;4995116;28;20037;-83
2022/09/19 02:15:36;;;;;;;11.75;1.92;;;;;;;8.51;89.92;101696.69;4979829;28;20041;-83
2022/09/19 02:18:40;;;;;;;12.10;1.95;;;;;;;8.56;88.55;101704.19;5005893;28;20426;-84
2022/09/19 02:21:23;;;;;;;13.30;2.05;;;;;;;8.55;89.03;101711.09;5004910;28;20030;-83
2022/09/19 02:24:05;;;;;;;;;;;;;;;;;;;;;
2022/09/19 02:26:36;;;;;;;11.68;2.10;;;;;;;8.55;88.49;101710.28;5001689;28;20176;-83
2022/09/19 02:29:06;;;;;;;8.85;2.00;;;;;;;8.55;88.44;101705.94;5002426;28;20029;-83
2022/09/19 02:31:32;;;;;;;10.05;2.00;;;;;;;8.79;89.25;101745.03;4977573;28;20041;-83
2022/09/19 02:34:09;;;;;;;13.40;3.20;;;;;;;8.44;89.20;101703.97;4987183;28;20777;-83
2022/09/19 02:36:38;;;;;;;7.97;1.88;;;;;;;8.84;89.09;101752.53;4999539;28;20069;-83
2022/09/19 02:39:44;;;;;;;11.55;2.67;;;;;;;8.64;89.30;101725.22;5002316;28;20045;-83
2022/09/19 02:42:35;;;;;;;14.52;2.65;;;;;;;8.58;89.22;101710.06;5005151;28;20066;-83
2022/09/19 02:45:25;;;;;;;10.60;1.63;;;;;;;8.60;89.40;101708.22;4981843;28;20249;-84
2022/09/19 02:48:32;;;;;;;8.57;2.03;;;;;;;8.74;89.03;101731.53;4984975;28;20032;-84
2022/09/19 02:51:06;;;;;;;13.02;2.10;;;;;;;8.92;88.86;101761.47;4986304;28;20033;-83
2022/09/19 02:53:51;;;;;;;12.70;2.15;;;;;;;8.68;88.79;101716.38;5005992;28;20033;-83
2022/09/19 02:56:33;;;;;;;8.15;1.83;;;;;;;8.71;88.92;101721.34;4994115;28;20117;-84
2022/09/19 02:59:17;;;;;;;15.13;2.95;;;;;;;8.71;88.44;101726.53;4988664;28;20030;-83
2022/09/19 03:01:48;;;;;;;10.07;2.40;;;;;;;8.81;89.25;101738.00;5002398;28;20035;-83
2022/09/19 03:04:29;;;;;;;9.02;2.30;;;;;;;8.73;88.59;101727.28;4985151;28;20072;-83
2022/09/19 03:07:19;;;;;;;12.05;1.90;;;;;;;8.77;88.63;101731.34;4988595;28;20048;-83
2022/09/19 03:10:12;;;;;;;9.77;2.15;;;;;;;9.08;88.62;101771.75;4998503;28;20037;-83
2022/09/19 03:12:47;;;;;;;10.10;2.30;;;;;;;9.09;87.87;101772.56;5005634;28;20427;-83
2022/09/19 03:15:51;;;;;;;9.60;1.88;;;;;;;8.85;87.85;101718.78;4988866;28;20041;-83
2022/09/19 03:18:26;;;;;;;14.23;3.22;;;;;;;8.82;88.85;101718.97;4981402;28;20247;-81
2022/09/19 03:21:02;;;;;;;10.35;2.33;;;;;;;8.91;88.01;101713.25;5007811;28;20030;-81
2022/09/19 03:23:41;;;;;;;9.07;2.22;;;;;;;8.96;87.41;101716.38;4991891;28;20454;-81
2022/09/19 03:26:15;;;;;;;12.00;2.90;;;;;;;8.93;86.86;101713.97;4989060;28;20033;-81
2022/09/19 03:28:46;;;;;;;10.73;2.30;;;;;;;9.03;86.41;101728.03;5010583;28;20048;-81
2022/09/19 03:31:25;;;;;;;10.55;2.58;;;;;;;9.00;86.64;101717.03;4992992;28;20033;-84
2022/09/19 03:34:13;;;;;;;9.40;2.40;;;;;;;9.01;86.93;101714.34;5004826;28;20034;-84
2022/09/19 03:36:43;;;;;;;;;;;;;;;9.37;87.26;101772.56;5010767;28;20040;-83
2022/09/19 03:39:17;;;;;;;14.15;2.15;;;;;;;9.07;87.33;101722.69;4999577;28;19913;-84
2022/09/19 03:41:45;;;;;;;9.63;1.80;;;;;;;9.10;87.26;101743.19;4991664;28;20036;-83
2022/09/19 03:44:26;;;;;;;8.15;1.60;;;;;;;9.21;87.25;101751.13;4991725;28;20045;-83
2022/09/19 03:46:52;;;;;;;11.23;2.72;;;;;;;9.03;87.20;101746.13;4992993;28;20117;-83
2022/09/19 03:49:20;;;;;;;10.30;1.58;;;;;;;9.00;86.49;101732.53;5008147;28;20112;-84
2022/09/19 03:51:55;;;;;;;15.18;2.67;;;;;;;8.98;86.99;101752.50;5008850;28;20101;-84
2022/09/19 03:54:24;;;;;;;8.75;1.85;;;;;;;8.89;87.10;101730.63;4985883;28;20065;-83
2022/09/19 03:57:22;;;;;;;13.63;2.28;;;;;;;8.96;86.79;101742.25;4989824;28;20032;-84
2022/09/19 04:00:06;;;;;;;7.72;1.85;;;;;;;9.02;86.98;101754.81;4983626;28;20050;-84
2022/09/19 04:05:27;;;;;;;9.77;1.90;;;;;;;8.88;86.69;101734.13;5004507;28;20030;-84
2022/09/19 04:07:55;;;;;;;9.82;2.55;;;;;;;8.97;87.08;101774.97;4993747;28;20073;-84
2022/09/19 04:10:36;;;;;;;6.53;1.63;;;;;;;8.92;86.29;101751.13;4979722;28;20076;-84
2022/09/19 04:13:14;;;;;;;9.75;2.33;;;;;;;8.91;86.34;101751.22;4991759;28;20025;-83
2022/09/19 04:15:46;;;;;;;7.10;1.52;;;;;;;8.89;85.79;101746.16;5003362;28;20552;-83
2022/09/19 04:18:17;;;;;;;9.75;1.98;;;;;;;8.99;85.98;101762.75;5003483;28;20022;-84
2022/09/19 04:20:46;;;;;;;11.65;2.25;;;;;;;8.90;86.58;101752.97;4987219;28;20045;-82
2022/09/19 04:23:16;;;;;;;12.52;1.83;;;;;;;8.92;86.84;101758.88;5002845;28;20034;-83
2022/09/19 04:25:48;;;;;;;9.93;1.55;;;;;;;9.00;87.37;101767.03;5009886;28;20076;-83
2022/09/19 04:28:18;;;;;;;11.52;2.50;;;;;;;8.97;87.64;101774.97;4989721;28;20038;-83
2022/09/19 04:30:47;;;;;;;8.45;1.85;;;;;;;9.07;87.86;101780.44;4987525;28;20026;-83
2022/09/19 04:33:13;;;;;;;;;;;;;;;9.22;87.60;101804.56;4989278;28;20026;-84
2022/09/19 04:35:39;;;;;;;9.82;1.75;;;;;;;9.13;87.56;101784.41;4990586;28;20056;-84
2022/09/19 04:38:07;;;;;;;8.52;1.88;;;;;;;9.23;88.17;101809.66;5007908;28;20117;-83
2022/09/19 04:40:56;;;;;;;7.65;2.17;;;;;;;9.24;88.41;101802.72;4977645;28;20034;-83
2022/09/19 04:43:24;;;;;;;10.80;2.13;;;;;;;9.27;88.10;101807.69;5004287;28;20474;-84
2022/09/19 04:45:50;;;;;;;11.35;2.08;;;;;;;9.26;88.65;101811.22;4978098;28;20390;-84
2022/09/19 04:48:17;;;;;;;12.05;2.67;;;;;;;9.11;89.13;101791.41;5003662;28;20403;-83
2022/09/19 04:50:50;;;;;;;11.65;3.05;;;;;;;9.16;88.86;101804.91;5005448;28;20026;-82
2022/09/19 04:53:23;;;;;;;10.60;1.50;;;;;;;9.20;88.95;101806.41;4992508;28;20041;-83
2022/09/19 04:55:53;;;;;;;11.40;2.22;;;;;;;9.17;89.33;101801.41;4985488;28;20065;-82
2022/09/19 04:58:20;;;;;;;12.88;3.42;;;;;;;9.23;90.06;101821.75;4991569;28;20235;-84
2022/09/19 05:00:53;;;;;;;10.07;2.78;;;;;;;9.21;89.75;101819.25;4987457;28;20473;-84
2022/09/19 05:03:20;;;;;;;10.80;2.15;;;;;;;9.23;89.83;101824.31;4990799;28;20036;-84
2022/09/19 05:05:51;;;;;;;12.57;2.92;;;;;;;9.28;89.46;101822.28;5007016;28;20025;-84
2022/09/19 05:08:25;;;;;;;8.30;2.58;;;;;;;9.28;89.07;101824.88;4993059;28;20053;-82
2022/09/19 05:10:58;;;;;;;11.57;3.22;;;;;;;9.22;89.55;101835.59;5002628;28;20468;-84
2022/09/19 05:13:27;;;;;;;10.88;1.92;;;;;;;9.27;89.59;101833.59;5001684;28;20047;-84
2022/09/19 05:15:53;;;;;;;14.00;3.45;;;;;;;9.20;90.30;101830.53;4978754;28;20095;-84
2022/09/19 05:18:21;;;;;;;8.70;1.70;;;;;;;9.22;90.04;101833.03;4998829;28;20402;-84
2022/09/19 05:20:48;;;;;;;9.23;2.17;;;;;;;9.24;90.11;101829.44;5002946;28;20034;-84
2022/09/19 05:23:14;;;;;;;8.68;1.92;;;;;;;9.20;89.82;101832.28;5001638;28;20037;-83
2022/09/19 05:25:39;;;;;;;9.52;3.05;;;;;;;9.18;90.22;101834.16;4988468;28;20026;-84
2022/09/19 05:28:06;;;;;;;9.20;2.15;;;;;;;9.19;90.13;101830.63;5006668;28;20412;-83
2022/09/19 05:30:38;;;;;;;10.32;2.55;;;;;;;9.14;89.92;101822.31;5008004;28;20034;-83
2022/09/19 05:33:04;;;;;;;6.50;1.77;;;;;;;9.24;90.37;101844.13;4975358;28;20022;-83
2022/09/19 05:35:30;;;;;;;11.65;2.17;;;;;;;9.21;90.06;101833.94;4988215;28;20061;-83
2022/09/19 05:37:57;;;;;;;10.52;2.50;;;;;;;9.15;90.20;101831.72;4988107;28;20022;-83
2022/09/19 05:40:23;;;;;;;13.60;2.50;;;;;;;9.15;90.88;101836.91;5007105;28;20117;-83
2022/09/19 05:42:53;;;;;;;12.02;1.70;;;;;;;9.23;90.22;101839.84;4979462;28;20019;-83
2022/09/19 05:45:20;;;;;;;13.20;2.38;;;;;;;9.26;89.93;101845.69;5004528;28;20036;-83
2022/09/19 05:47:46;;;;;;;6.47;1.50;;;;;;;9.27;90.48;101843.94;5006294;28;20025;-83
2022/09/19 05:50:14;;;;;;;9.57;2.50;;;;;;;9.30;90.15;101852.38;5006022;28;20033;-83
2022/09/19 05:55:27;;;;;;;14.30;2.30;;;;;;;9.19;90.60;101856.50;5007551;28;20129;-83
2022/09/19 05:57:58;;;;;;;9.48;2.55;;;;;;;9.23;90.39;101852.81;5004733;28;20037;-83
2022/09/19 06:00:26;;;;;;;6.82;1.50;;;;;;;9.26;90.43;101857.81;4987833;28;20478;-83
2022/09/19 06:02:56;;;;;;;11.65;2.05;;;;;;;9.28;89.99;101866.31;5006246;28;20041;-83
2022/09/19 06:05:23;;;;;;;8.20;1.80;;;;;;;9.31;90.63;101876.50;4987467;28;20036;-84
2022/09/19 06:07:49;;;;;;;8.95;2.30;;;;;;;9.32;90.10;101862.63;5006929;28;20617;-83
2022/09/19 06:10:14;;;;;;;12.73;2.40;;;;;;;9.36;90.26;101874.47;5006118;28;20030;-83
2022/09/19 06:12:39;;;;;;;8.90;2.00;;;;;;;9.36;90.09;101864.13;5006993;28;20041;-83
2022/09/19 06:15:05;;;;;;;10.52;2.20;;;;;;;9.45;89.64;101878.25;4987795;28;20470;-83
2022/09/19 06:17:31;;;;;;;10.35;2.35;;;;;;;9.44;90.15;101867.06;4987884;28;20026;-83
2022/09/19 06:19:57;;;;;;;9.40;1.83;;;;;;;9.49;90.13;101880.56;5005686;28;20021;-83
2022/09/19 06:22:22;;;;;;;13.02;2.58;;;;;;;9.47;90.19;101860.88;4981314;28;20037;-83
2022/09/19 06:24:47;;;;;;;13.65;2.63;;;;;;;9.50;90.05;101856.34;4988062;28;20117;-83
2022/09/19 06:27:16;;;;;;;10.23;1.77;;;;;;;9.61;90.36;101868.63;4986469;28;20034;-83
2022/09/19 06:29:41;;;;;;;9.30;1.80;;;;;;;9.63;89.97;101873.72;5005723;28;20167;-83
2022/09/19 06:32:06;;;;;;;9.90;2.20;;;;;;;9.75;90.23;101875.59;5003091;28;20537;-83
2022/09/19 06:34:32;;;;;;;9.20;2.15;;;;;;;9.87;90.79;101887.78;5000114;28;20034;-83
2022/09/19 06:36:57;;;;;;;13.25;2.60;;;;;;;9.88;90.58;101884.25;5004677;28;20714;-83
2022/09/19 06:39:22;;;;;;;12.52;2.95;;;;;;;9.97;91.17;101886.25;4987613;28;20103;-84
2022/09/19 06:41:48;;;;;;;12.07;2.60;;;;;;;10.14;90.96;101892.16;4987005;28;20095;-83
2022/09/19 06:44:14;;;;;;;12.93;2.80;;;;;;;10.18;91.62;101894.47;5005214;28;20053;-84
2022/09/19 06:46:40;;;;;;;9.68;2.15;;;;;;;10.27;91.57;101898.28;4979923;28;20030;-83
2022/09/19 06:49:08;;;;;;;12.18;3.10;;;;;;;10.32;90.92;101881.50;5005277;28;20362;-84
2022/09/19 06:51:34;;;;;;;10.57;2.33;;;;;;;10.39;90.44;101887.13;5003039;28;20041;-83
2022/09/19 06:54:00;;;;;;;12.52;3.15;;;;;;;10.51;91.10;101904.50;5006204;28;20473;-83
2022/09/19 06:56:26;;;;;;;15.57;3.17;;;;;;;10.57;91.34;101900.69;5006168;28;20037;-83
2022/09/19 06:58:51;;;;;;;12.10;2.75;;;;;;;10.71;91.65;101912.75;4991091;28;20018;-83
2022/09/19 07:01:17;;;;;;;11.77;2.53;;;;;;;10.75;90.97;101909.88;4986004;28;20077;-83
2022/09/19 07:03:43;;;;;;;7.97;1.90;;;;;;;10.78;91.15;101914.00;5007555;28;20568;-83
2022/09/19 07:06:08;;;;;;;11.25;2.40;;;;;;;10.89;91.90;101906.34;5002659;28;20112;-84
2022/09/19 07:08:33;;;;;;;10.73;3.00;;;;;;;10.90;91.68;101913.25;4986915;28;20105;-83
2022/09/19 07:10:59;;;;;;;13.07;2.97;;;;;;;10.99;91.52;101907.41;4984758;28;20060;-83
2022/09/19 07:13:25;;;;;;;9.60;2.30;;;;;;;11.14;91.35;101927.19;4990917;28;20481;-84
2022/09/19 07:15:50;;;;;;;11.10;2.63;;;;;;;11.28;91.16;101917.63;5001794;28;20088;-83
2022/09/19 07:18:16;;;;;;;11.07;3.15;;;;;;;11.39;89.83;101915.16;4988316;28;20516;-83
2022/09/19 07:20:41;;;;;;;8.35;2.22;;;;;;;11.50;90.13;101923.03;5007295;28;20482;-83
2022/09/19 07:23:18;;;;;;;11.40;2.53;;;;;;;11.60;89.61;101933.66;4990548;28;20034;-83
2022/09/19 07:25:44;;;;;;;9.35;2.40;;;;;;;11.66;89.62;101928.88;5009184;28;20132;-83
2022/09/19 07:28:16;;;;;;;11.55;2.50;;;;;;;11.76;89.68;101934.28;5009080;28;20037;-83
2022/09/19 07:30:46;;;;;;;9.35;2.80;;;;;;;11.78;89.07;101937.59;5008786;28;20026;-84
2022/09/19 07:33:14;;;;;;;11.30;2.70;;;;;;;11.89;89.09;101939.47;5008544;28;20034;-84
2022/09/19 07:35:43;;;;;;;8.88;2.50;;;;;;;11.88;88.72;101932.63;5009309;28;20029;-84
2022/09/19 07:38:28;;;;;;;10.70;2.42;;;;;;;11.97;89.20;101931.97;4991072;28;20034;-84
2022/09/19 07:40:54;;;;;;;10.80;2.33;;;;;;;12.09;89.05;101936.31;4983876;28;20053;-83
2022/09/19 07:43:20;;;;;;;10.75;2.13;;;;;;;12.10;87.96;101932.78;5003187;28;20116;-84
2022/09/19 07:45:48;;;;;;;10.45;2.35;;;;;;;12.14;88.62;101943.78;4984284;28;20026;-84
2022/09/19 07:48:17;;;;;;;10.30;2.63;;;;;;;12.19;86.80;101947.72;5005079;28;20030;-84
2022/09/19 07:50:43;;;;;;;10.48;2.42;;;;;;;12.20;87.71;101935.56;5000096;28;20037;-83
2022/09/19 07:53:27;;;;;;;11.38;2.70;;;;;;;12.27;88.78;101938.53;5007256;28;20030;-83
2022/09/19 07:55:55;;;;;;;11.10;2.30;;;;;;;12.26;86.90;101939.50;5007345;28;20061;-83
2022/09/19 07:58:23;;;;;;;12.38;2.85;;;;;;;12.34;86.24;101955.41;5005442;28;20517;-83
2022/09/19 08:00:49;;;;;;;7.90;2.08;;;;;;;12.29;85.44;101944.50;4990746;28;20338;-83
2022/09/19 08:03:17;;;;;;;7.20;1.85;;;;;;;12.43;85.03;101962.53;4989854;28;20723;-83
2022/09/19 08:05:46;;;;;;;9.07;2.05;;;;;;;12.41;85.09;101941.84;5005230;28;20044;-84
2022/09/19 08:08:13;;;;;;;11.25;3.05;;;;;;;12.49;85.96;101959.50;4997908;28;20554;-83
2022/09/19 08:10:40;;;;;;;9.88;2.45;;;;;;;12.54;85.18;101954.78;4990348;28;20111;-83
2022/09/19 08:13:06;;;;;;;10.18;2.33;;;;;;;12.68;85.63;101965.06;4987036;28;20018;-84
2022/09/19 08:15:33;;;;;;;6.65;1.60;;;;;;;12.66;84.74;101964.31;4995185;28;20068;-83
2022/09/19 08:17:59;;;;;;;8.93;1.70;;;;;;;12.71;83.29;101974.41;4999984;28;20114;-83
2022/09/19 08:20:26;;;;;;;8.35;1.70;;;;;;;12.74;83.70;101975.03;4991021;28;20041;-84
2022/09/19 08:22:59;;;;;;;11.23;2.53;;;;;;;12.74;84.19;101975.03;4995923;28;20034;-83
2022/09/19 08:25:26;;;;;;;13.68;2.00;;;;;;;12.70;85.36;101984.00;4999603;28;20030;-84
2022/09/19 08:27:52;;;;;;;9.38;2.38;;;;;;;12.56;85.53;101976.34;4986818;28;20429;-83
2022/09/19 08:30:19;;;;;;;9.50;2.45;;;;;;;12.68;87.36;101991.09;4989014;28;20034;-83
2022/09/19 08:32:49;;;;;;;8.50;2.00;;;;;;;12.58;86.57;101984.03;5003877;28;20026;-84
2022/09/19 08:35:18;;;;;;;9.18;2.10;;;;;;;12.56;86.24;101981.56;4990232;28;20068;-84
2022/09/19 08:37:44;;;;;;;;;;;;;;;12.75;86.57;101994.91;4990046;28;20493;-84
2022/09/19 08:40:25;;;;;;;10.05;2.25;;;;;;;12.67;87.21;101984.22;4990251;28;19924;-83
2022/09/19 08:43:14;;;;;;;8.32;1.92;;;;;;;12.78;87.52;101996.44;5002512;28;20492;-84
2022/09/19 08:45:58;;;;;;;9.57;2.25;;;;;;;12.83;87.65;101994.34;5003899;28;20482;-84
2022/09/19 08:48:29;;;;;;;9.93;1.98;;;;;;;12.71;84.98;101998.66;5003922;28;20481;-84
2022/09/19 08:51:06;;;;;;;9.43;2.15;;;;;;;12.69;86.11;102000.56;5003541;28;20022;-84
2022/09/19 08:53:40;;;;;;;9.57;2.40;;;;;;;12.64;85.65;102005.25;4989625;28;20033;-84
2022/09/19 08:56:06;;;;;;;10.02;2.28;;;;;;;12.70;86.61;101993.56;5002906;28;20046;-84
2022/09/19 08:58:38;;;;;;;10.80;2.60;;;;;;;12.76;85.66;101999.16;5007449;28;20029;-84
2022/09/19 09:01:20;;;;;;;12.20;2.42;;;;;;;12.89;86.53;101998.28;4988925;28;20040;-84
2022/09/19 09:04:07;;;;;;;10.55;2.25;;;;;;;13.00;85.45;101995.72;5006085;28;20021;-84
2022/09/19 09:06:51;;;;;;;9.40;2.17;;;;;;;13.08;84.19;102003.81;5007680;28;20112;-83
2022/09/19 09:09:20;;;;;;;11.40;2.55;;;;;;;13.16;84.54;101993.66;4988287;28;20054;-84
2022/09/19 09:11:55;;;;;;;14.85;2.50;;;;;;;13.22;82.95;101990.63;5007638;28;20034;-83
2022/09/19 09:14:46;;;;;;;11.98;2.35;;;;;;;13.22;82.87;101985.41;4989058;28;20115;-84
2022/09/19 09:17:14;;;;;;;11.35;2.50;;;;;;;13.40;82.36;102008.44;5005114;28;20034;-84
2022/09/19 09:20:08;;;;;;;12.35;2.55;;;;;;;13.40;82.04;101992.81;4989350;28;20520;-84
2022/09/19 09:22:41;;;;;;;10.38;2.47;;;;;;;13.43;80.16;101998.63;5004249;28;20038;-84
2022/09/19 09:25:23;;;;;;;9.68;2.22;;;;;;;13.46;80.84;101992.34;4979576;28;20033;-84
2022/09/19 09:28:07;;;;;;;11.07;2.08;;;;;;;13.66;81.19;101994.28;4997518;28;20053;-84
2022/09/19 09:30:41;;;;;;;9.23;2.03;;;;;;;13.71;79.74;101989.56;4999048;28;20571;-84
2022/09/19 09:33:28;;;;;;;9.13;2.40;;;;;;;13.74;81.05;101983.25;4987278;28;20461;-84
2022/09/19 09:36:04;;;;;;;11.45;2.40;;;;;;;13.93;78.85;101993.94;4989891;28;20029;-84
2022/09/19 09:38:34;;;;;;;9.75;2.10;;;;;;;14.09;78.67;102004.03;4987224;28;20474;-84
2022/09/19 09:44:13;;;;;;;9.02;2.22;;;;;;;13.97;79.17;102012.78;5006618;28;20080;-84
2022/09/19 09:46:50;;;;;;;;;;;;;;;14.06;80.40;102014.72;5003813;28;20126;-84
2022/09/19 09:49:17;;;;;;;8.35;1.40;;;;;;;13.47;79.75;102014.84;4982740;28;20297;-84
2022/09/19 09:51:48;;;;;;;7.47;1.70;;;;;;;13.13;79.97;102046.00;4992968;28;20060;-84
2022/09/19 09:57:40;;;;;;;6.00;1.75;;;;;;;12.72;82.39;102015.94;5005281;28;20036;-84
2022/09/19 10:05:57;;;;;;;8.10;1.90;;;;;;;12.66;86.01;102013.78;4996869;28;20068;-84
2022/09/19 10:09:04;;;;;;;8.32;1.60;;;;;;;12.71;86.16;102016.88;4988184;28;20077;-83
2022/09/19 10:11:39;;;;;;;9.95;2.17;;;;;;;12.60;86.69;102027.22;4995650;28;20030;-84
2022/09/19 10:14:14;;;;;;;8.00;2.05;;;;;;;12.54;87.85;102019.84;5003022;28;20018;-84
2022/09/19 10:16:42;;;;;;;7.05;1.73;;;;;;;12.54;84.48;102014.66;4996371;28;20129;-84
2022/09/19 10:19:20;;;;;;;8.02;1.77;;;;;;;12.68;86.75;102019.72;4995816;28;20026;-84
2022/09/19 10:21:48;;;;;;;;;;;;;;;12.83;85.95;102024.75;4983839;28;20379;-84
2022/09/19 10:24:50;;;;;;;8.75;1.60;;;;;;;12.81;87.24;102024.03;5003256;28;20379;-84
2022/09/19 10:27:26;;;;;;;8.75;2.03;;;;;;;12.87;88.64;102021.00;4993180;28;20034;-84
2022/09/19 10:30:22;;;;;;;6.70;1.75;;;;;;;12.99;88.19;102026.16;5003615;28;20049;-85
2022/09/19 10:32:48;;;;;;;8.70;1.90;;;;;;;12.91;87.38;102015.47;4987456;28;20034;-84
2022/09/19 10:35:35;;;;;;;5.13;1.55;;;;;;;12.92;84.83;102021.50;4987832;28;20597;-84
2022/09/19 10:38:15;;;;;;;6.22;1.45;;;;;;;12.92;84.71;102029.31;4986734;28;20148;-84
2022/09/19 10:40:54;;;;;;;6.95;1.70;;;;;;;12.85;84.63;102020.28;5003592;28;20068;-83
2022/09/19 10:43:22;;;;;;;;;;;;;;;13.03;85.14;102022.38;5004007;28;20378;-84
2022/09/19 10:45:47;;;;;;;7.23;1.70;;;;;;;13.02;85.86;102014.69;5005042;28;19933;-84
2022/09/19 10:48:56;;;;;;;7.45;1.45;;;;;;;13.08;84.73;102027.25;5003645;28;20284;-84
2022/09/19 10:51:22;;;;;;;;;;;;;;;13.21;85.21;102030.66;4944997;29;20035;-83
2022/09/19 10:53:54;;;;;;;8.20;1.38;;;;;;;13.22;85.68;102031.47;4944872;29;19914;-84
2022/09/19 10:56:32;;;;;;;5.57;1.50;;;;;;;13.22;84.80;102021.88;4944514;29;20047;-84
2022/09/19 10:59:18;;;;;;;7.45;1.60;;;;;;;13.32;83.87;102031.66;4943554;29;20039;-84
2022/09/19 11:02:08;;;;;;;9.50;1.77;;;;;;;13.36;82.85;102017.44;4928530;29;20063;-84
2022/09/19 11:04:36;;;;;;;9.45;2.05;;;;;;;13.38;80.20;102028.59;4943839;29;20039;-84
2022/09/19 11:07:13;;;;;;;9.13;1.80;;;;;;;13.29;78.75;102017.88;4943858;29;20423;-84
2022/09/19 11:09:59;;;;;;;7.30;1.75;;;;;;;13.40;78.46;102029.28;4944667;29;20427;-84
2022/09/19 11:12:28;;;;;;;8.77;2.08;;;;;;;13.42;80.01;102035.22;4943698;29;20073;-83
2022/09/19 11:14:55;;;;;;;9.98;2.10;;;;;;;13.26;81.14;102027.72;4944833;29;20047;-84
2022/09/19 11:17:47;;;;;;;8.90;1.73;;;;;;;13.25;80.45;102032.09;4944078;29;20038;-83
2022/09/19 11:20:34;;;;;;;8.23;2.35;;;;;;;13.19;81.74;102048.16;4921935;29;20046;-85
2022/09/19 11:23:13;;;;;;;9.25;1.98;;;;;;;13.18;84.34;102050.84;4973765;28;20376;-83
2022/09/19 11:25:48;;;;;;;7.28;1.85;;;;;;;13.01;83.90;102060.72;4980895;28;20256;-84
2022/09/19 11:28:30;;;;;;;8.10;1.95;;;;;;;12.91;84.37;102048.50;4973857;28;20157;-83
2022/09/19 11:31:10;;;;;;;7.35;1.40;;;;;;;12.89;85.23;102050.34;4984177;28;20054;-83
2022/09/19 11:33:39;;;;;;;7.80;1.95;;;;;;;12.80;86.01;102051.03;4984801;28;20113;-84
2022/09/19 11:36:21;;;;;;;6.10;1.38;;;;;;;12.82;87.12;102055.16;4974778;28;20066;-84
2022/09/19 11:39:13;;;;;;;6.63;2.05;;;;;;;12.73;87.22;102048.88;4972583;28;20459;-84
2022/09/19 11:42:05;;;;;;;7.28;1.65;;;;;;;12.72;87.46;102044.56;4970595;28;20023;-84
2022/09/19 11:45:08;;;;;;;7.47;1.70;;;;;;;12.75;87.79;102054.78;4987980;28;20034;-84
2022/09/19 11:48:07;;;;;;;7.88;1.85;;;;;;;12.86;88.49;102045.38;4974484;28;20508;-83
2022/09/19 11:50:41;;;;;;;8.32;1.75;;;;;;;12.87;88.93;102044.44;4980209;28;20035;-84
2022/09/19 11:53:17;;;;;;;8.45;1.55;;;;;;;12.77;88.11;102042.47;4987445;28;20402;-83
2022/09/19 11:56:16;;;;;;;9.43;1.90;;;;;;;12.83;86.84;102045.59;4987459;28;20037;-84
2022/09/19 11:58:51;;;;;;;7.75;1.60;;;;;;;12.74;85.17;102042.72;4980031;28;20057;-83
2022/09/19 12:01:45;;;;;;;7.53;1.70;;;;;;;12.80;87.79;102043.22;4985196;28;20026;-83
2022/09/19 12:04:49;;;;;;;8.90;2.13;;;;;;;12.94;87.74;102037.84;4976170;28;20039;-83
2022/09/19 12:07:47;;;;;;;7.85;1.85;;;;;;;12.97;88.00;102037.63;4941377;29;20031;-83
2022/09/19 12:10:24;;;;;;;9.30;2.10;;;;;;;12.98;86.24;102026.25;4945882;29;20126;-83
2022/09/19 12:13:15;;;;;;;7.63;2.00;;;;;;;13.12;86.52;102031.28;4947130;29;20424;-83
2022/09/19 12:15:46;;;;;;;8.38;2.30;;;;;;;13.14;85.57;102029.41;4943463;29;20051;-83
2022/09/19 12:18:21;;;;;;;7.70;1.77;;;;;;;13.17;86.35;102017.94;4931183;29;20027;-83
2022/09/19 12:20:50;;;;;;;8.40;2.05;;;;;;;13.26;84.79;102027.72;4930787;29;20121;-84
2022/09/19 12:26:53;;;;;;;5.85;1.58;;;;;;;13.78;85.14;102029.84;4944000;29;20447;-84
2022/09/19 12:29:32;;;;;;;5.57;1.48;;;;;;;13.77;83.23;102033.41;4946808;28;20035;-84
2022/09/19 12:32:19;;;;;;;6.50;1.80;;;;;;;13.71;80.97;102033.88;4946068;29;20035;-84
2022/09/19 12:34:53;;;;;;;6.95;2.00;;;;;;;13.68;81.18;102031.50;4931255;29;20035;-84